sensor_id;sensor_type;location;lat;lon;timestamp;temperature;humidity
55777;DHT22;54079;44.540;18.784;2023-09-19T00:02:03;24.50;86.10
55777;DHT22;54079;44.540;18.784;2023-09-19T00:04:32;24.40;85.70
55777;DHT22;54079;44.540;18.784;2023-09-19T00:06:59;24.30;85.00
55777;DHT22;54079;44.540;18.784;2023-09-19T00:09:25;24.40;85.90
55777;DHT22;54079;44.540;18.784;2023-09-19T00:11:53;24.50;85.50
55777;DHT22;54079;44.540;18.784;2023-09-19T00:14:20;24.50;84.10
55777;DHT22;54079;44.540;18.784;2023-09-19T00:16:45;24.60;84.90
55777;DHT22;54079;44.540;18.784;2023-09-19T00:19:15;24.60;86.40
55777;DHT22;54079;44.540;18.784;2023-09-19T00:21:41;24.20;87.90
55777;DHT22;54079;44.540;18.784;2023-09-19T00:24:08;24.10;87.40
55777;DHT22;54079;44.540;18.784;2023-09-19T00:26:35;24.20;87.90
55777;DHT22;54079;44.540;18.784;2023-09-19T00:29:01;24.10;89.10
55777;DHT22;54079;44.540;18.784;2023-09-19T00:31:30;24.10;88.10
55777;DHT22;54079;44.540;18.784;2023-09-19T00:33:56;24.00;89.60
55777;DHT22;54079;44.540;18.784;2023-09-19T00:36:28;24.00;90.40
55777;DHT22;54079;44.540;18.784;2023-09-19T00:38:54;23.60;90.30
55777;DHT22;54079;44.540;18.784;2023-09-19T00:41:20;23.80;90.80
55777;DHT22;54079;44.540;18.784;2023-09-19T00:43:47;23.70;92.00
55777;DHT22;54079;44.540;18.784;2023-09-19T00:46:17;23.60;92.80
55777;DHT22;54079;44.540;18.784;2023-09-19T00:48:43;23.60;93.30
55777;DHT22;54079;44.540;18.784;2023-09-19T00:51:09;23.60;93.30
55777;DHT22;54079;44.540;18.784;2023-09-19T00:53:36;23.50;93.60
55777;DHT22;54079;44.540;18.784;2023-09-19T00:56:03;23.30;93.50
55777;DHT22;54079;44.540;18.784;2023-09-19T00:58:33;23.10;93.60
55777;DHT22;54079;44.540;18.784;2023-09-19T01:01:01;23.20;93.20
55777;DHT22;54079;44.540;18.784;2023-09-19T01:03:29;23.60;93.70
55777;DHT22;54079;44.540;18.784;2023-09-19T01:05:55;23.70;92.90
55777;DHT22;54079;44.540;18.784;2023-09-19T01:08:21;23.80;91.80
55777;DHT22;54079;44.540;18.784;2023-09-19T01:11:01;23.90;91.30
55777;DHT22;54079;44.540;18.784;2023-09-19T01:13:38;24.10;91.20
55777;DHT22;54079;44.540;18.784;2023-09-19T01:18:52;24.00;91.00
55777;DHT22;54079;44.540;18.784;2023-09-19T01:21:35;23.70;90.60
55777;DHT22;54079;44.540;18.784;2023-09-19T01:26:55;24.00;90.90
55777;DHT22;54079;44.540;18.784;2023-09-19T01:29:38;24.10;90.10
55777;DHT22;54079;44.540;18.784;2023-09-19T01:32:06;24.30;88.00
55777;DHT22;54079;44.540;18.784;2023-09-19T01:34:47;24.50;86.50
55777;DHT22;54079;44.540;18.784;2023-09-19T01:37:14;24.60;86.30
55777;DHT22;54079;44.540;18.784;2023-09-19T01:39:46;24.80;87.10
55777;DHT22;54079;44.540;18.784;2023-09-19T01:45:34;24.80;87.40
55777;DHT22;54079;44.540;18.784;2023-09-19T01:48:35;24.80;88.60
55777;DHT22;54079;44.540;18.784;2023-09-19T01:51:10;24.70;87.60
55777;DHT22;54079;44.540;18.784;2023-09-19T01:53:50;24.80;86.00
55777;DHT22;54079;44.540;18.784;2023-09-19T01:56:31;24.80;87.10
55777;DHT22;54079;44.540;18.784;2023-09-19T01:59:06;24.70;89.70
55777;DHT22;54079;44.540;18.784;2023-09-19T02:01:33;24.50;89.30
55777;DHT22;54079;44.540;18.784;2023-09-19T02:04:00;24.40;88.80
55777;DHT22;54079;44.540;18.784;2023-09-19T02:06:26;24.40;89.70
55777;DHT22;54079;44.540;18.784;2023-09-19T02:08:54;24.50;89.70
55777;DHT22;54079;44.540;18.784;2023-09-19T02:11:20;24.60;89.10
55777;DHT22;54079;44.540;18.784;2023-09-19T02:13:46;24.60;89.90
55777;DHT22;54079;44.540;18.784;2023-09-19T02:16:12;24.30;90.60
55777;DHT22;54079;44.540;18.784;2023-09-19T02:18:39;24.30;90.40
55777;DHT22;54079;44.540;18.784;2023-09-19T02:21:05;24.30;90.30
55777;DHT22;54079;44.540;18.784;2023-09-19T02:23:33;24.30;90.70
55777;DHT22;54079;44.540;18.784;2023-09-19T02:25:59;24.30;90.70
55777;DHT22;54079;44.540;18.784;2023-09-19T02:28:29;24.30;90.70
55777;DHT22;54079;44.540;18.784;2023-09-19T02:31:01;24.30;89.20
55777;DHT22;54079;44.540;18.784;2023-09-19T02:33:28;24.30;90.10
55777;DHT22;54079;44.540;18.784;2023-09-19T02:35:58;24.30;89.70
55777;DHT22;54079;44.540;18.784;2023-09-19T02:38:28;24.20;90.60
55777;DHT22;54079;44.540;18.784;2023-09-19T02:40:54;24.20;90.90
55777;DHT22;54079;44.540;18.784;2023-09-19T02:43:21;24.20;90.90
55777;DHT22;54079;44.540;18.784;2023-09-19T02:45:48;24.30;90.60
55777;DHT22;54079;44.540;18.784;2023-09-19T02:48:19;24.20;91.10
55777;DHT22;54079;44.540;18.784;2023-09-19T02:50:45;24.00;91.50
55777;DHT22;54079;44.540;18.784;2023-09-19T02:53:11;23.90;91.70
55777;DHT22;54079;44.540;18.784;2023-09-19T02:55:39;23.90;91.80
55777;DHT22;54079;44.540;18.784;2023-09-19T02:58:06;23.80;92.20
55777;DHT22;54079;44.540;18.784;2023-09-19T03:00:37;23.70;92.50
55777;DHT22;54079;44.540;18.784;2023-09-19T03:03:04;23.80;92.20
55777;DHT22;54079;44.540;18.784;2023-09-19T03:05:31;23.80;92.00
55777;DHT22;54079;44.540;18.784;2023-09-19T03:07:58;23.80;92.00
55777;DHT22;54079;44.540;18.784;2023-09-19T03:10:26;23.80;92.20
55777;DHT22;54079;44.540;18.784;2023-09-19T03:12:53;23.40;92.80
55777;DHT22;54079;44.540;18.784;2023-09-19T03:15:20;23.30;92.80
55777;DHT22;54079;44.540;18.784;2023-09-19T03:17:48;23.20;93.80
55777;DHT22;54079;44.540;18.784;2023-09-19T03:20:15;23.20;93.20
55777;DHT22;54079;44.540;18.784;2023-09-19T03:22:45;23.40;93.20
55777;DHT22;54079;44.540;18.784;2023-09-19T03:25:11;23.30;92.80
55777;DHT22;54079;44.540;18.784;2023-09-19T03:27:39;23.40;92.80
55777;DHT22;54079;44.540;18.784;2023-09-19T03:30:06;23.40;92.70
55777;DHT22;54079;44.540;18.784;2023-09-19T03:32:48;23.50;92.80
55777;DHT22;54079;44.540;18.784;2023-09-19T03:35:16;23.50;92.70
55777;DHT22;54079;44.540;18.784;2023-09-19T03:37:42;23.20;92.50
55777;DHT22;54079;44.540;18.784;2023-09-19T03:40:10;23.30;93.00
55777;DHT22;54079;44.540;18.784;2023-09-19T03:42:39;23.20;93.40
55777;DHT22;54079;44.540;18.784;2023-09-19T03:45:07;22.40;95.70
55777;DHT22;54079;44.540;18.784;2023-09-19T03:47:33;22.30;96.10
55777;DHT22;54079;44.540;18.784;2023-09-19T03:49:59;22.40;96.00
55777;DHT22;54079;44.540;18.784;2023-09-19T03:52:25;22.50;95.90
55777;DHT22;54079;44.540;18.784;2023-09-19T03:54:51;22.60;95.30
55777;DHT22;54079;44.540;18.784;2023-09-19T03:57:17;22.60;95.80
55777;DHT22;54079;44.540;18.784;2023-09-19T03:59:46;22.30;96.00
55777;DHT22;54079;44.540;18.784;2023-09-19T04:02:13;22.30;96.30
55777;DHT22;54079;44.540;18.784;2023-09-19T04:04:48;22.10;96.70
55777;DHT22;54079;44.540;18.784;2023-09-19T04:07:14;22.10;96.90
55777;DHT22;54079;44.540;18.784;2023-09-19T04:09:40;22.20;96.70
55777;DHT22;54079;44.540;18.784;2023-09-19T04:12:07;22.10;97.20
55777;DHT22;54079;44.540;18.784;2023-09-19T04:14:35;21.50;99.10
55777;DHT22;54079;44.540;18.784;2023-09-19T04:17:01;21.60;99.10
55777;DHT22;54079;44.540;18.784;2023-09-19T04:19:28;21.80;98.70
55777;DHT22;54079;44.540;18.784;2023-09-19T04:21:54;21.70;98.90
55777;DHT22;54079;44.540;18.784;2023-09-19T04:24:20;21.70;98.90
55777;DHT22;54079;44.540;18.784;2023-09-19T04:26:46;21.60;99.30
55777;DHT22;54079;44.540;18.784;2023-09-19T04:29:12;21.80;99.00
55777;DHT22;54079;44.540;18.784;2023-09-19T04:31:40;21.80;98.70
55777;DHT22;54079;44.540;18.784;2023-09-19T04:34:09;21.70;99.20
55777;DHT22;54079;44.540;18.784;2023-09-19T04:36:35;21.70;99.60
55777;DHT22;54079;44.540;18.784;2023-09-19T04:39:03;21.80;99.30
55777;DHT22;54079;44.540;18.784;2023-09-19T04:41:33;21.80;99.20
55777;DHT22;54079;44.540;18.784;2023-09-19T04:44:00;22.00;98.10
55777;DHT22;54079;44.540;18.784;2023-09-19T04:46:26;22.20;97.50
55777;DHT22;54079;44.540;18.784;2023-09-19T04:48:52;22.30;96.80
55777;DHT22;54079;44.540;18.784;2023-09-19T04:51:17;22.50;95.80
55777;DHT22;54079;44.540;18.784;2023-09-19T04:53:45;22.70;95.70
55777;DHT22;54079;44.540;18.784;2023-09-19T04:56:11;22.70;96.20
55777;DHT22;54079;44.540;18.784;2023-09-19T04:58:37;22.70;96.50
55777;DHT22;54079;44.540;18.784;2023-09-19T05:01:02;22.80;96.40
55777;DHT22;54079;44.540;18.784;2023-09-19T05:03:30;22.80;96.00
55777;DHT22;54079;44.540;18.784;2023-09-19T05:05:56;22.80;95.50
55777;DHT22;54079;44.540;18.784;2023-09-19T05:08:22;22.80;94.40
55777;DHT22;54079;44.540;18.784;2023-09-19T05:10:48;23.00;93.80
55777;DHT22;54079;44.540;18.784;2023-09-19T05:13:14;23.20;92.90
55777;DHT22;54079;44.540;18.784;2023-09-19T05:15:40;23.20;92.60
55777;DHT22;54079;44.540;18.784;2023-09-19T05:18:06;23.40;93.80
55777;DHT22;54079;44.540;18.784;2023-09-19T05:20:32;23.40;93.50
55777;DHT22;54079;44.540;18.784;2023-09-19T05:23:04;23.50;93.50
55777;DHT22;54079;44.540;18.784;2023-09-19T05:25:35;23.40;94.00
55777;DHT22;54079;44.540;18.784;2023-09-19T05:28:06;23.40;93.80
55777;DHT22;54079;44.540;18.784;2023-09-19T05:30:32;23.40;93.20
55777;DHT22;54079;44.540;18.784;2023-09-19T05:32:59;23.60;93.60
55777;DHT22;54079;44.540;18.784;2023-09-19T05:35:25;23.70;93.50
55777;DHT22;54079;44.540;18.784;2023-09-19T05:37:53;23.70;94.00
55777;DHT22;54079;44.540;18.784;2023-09-19T05:40:19;23.50;94.30
55777;DHT22;54079;44.540;18.784;2023-09-19T05:42:46;23.60;94.20
55777;DHT22;54079;44.540;18.784;2023-09-19T05:45:12;23.50;94.50
55777;DHT22;54079;44.540;18.784;2023-09-19T05:47:42;23.30;94.10
55777;DHT22;54079;44.540;18.784;2023-09-19T05:50:09;23.60;94.20
55777;DHT22;54079;44.540;18.784;2023-09-19T05:52:38;23.90;94.10
55777;DHT22;54079;44.540;18.784;2023-09-19T05:55:05;24.00;93.10
55777;DHT22;54079;44.540;18.784;2023-09-19T05:57:33;24.40;92.60
55777;DHT22;54079;44.540;18.784;2023-09-19T06:00:00;24.50;92.50
55777;DHT22;54079;44.540;18.784;2023-09-19T06:02:27;24.90;91.50
55777;DHT22;54079;44.540;18.784;2023-09-19T06:04:56;24.80;91.80
55777;DHT22;54079;44.540;18.784;2023-09-19T06:07:22;24.90;91.60
55777;DHT22;54079;44.540;18.784;2023-09-19T06:09:52;25.10;91.30
55777;DHT22;54079;44.540;18.784;2023-09-19T06:12:19;25.30;90.70
55777;DHT22;54079;44.540;18.784;2023-09-19T06:14:45;25.50;90.80
55777;DHT22;54079;44.540;18.784;2023-09-19T06:17:11;25.70;90.30
55777;DHT22;54079;44.540;18.784;2023-09-19T06:19:37;25.80;90.70
55777;DHT22;54079;44.540;18.784;2023-09-19T06:22:04;26.10;88.80
55777;DHT22;54079;44.540;18.784;2023-09-19T06:24:30;26.20;87.30
55777;DHT22;54079;44.540;18.784;2023-09-19T06:26:56;26.30;87.60
55777;DHT22;54079;44.540;18.784;2023-09-19T06:29:22;26.80;87.40
55777;DHT22;54079;44.540;18.784;2023-09-19T06:31:50;26.70;87.00
55777;DHT22;54079;44.540;18.784;2023-09-19T06:34:16;27.30;86.40
55777;DHT22;54079;44.540;18.784;2023-09-19T06:36:44;29.20;83.50
55777;DHT22;54079;44.540;18.784;2023-09-19T06:39:11;32.60;77.40
55777;DHT22;54079;44.540;18.784;2023-09-19T06:41:37;35.20;68.50
55777;DHT22;54079;44.540;18.784;2023-09-19T06:44:05;37.50;64.50
55777;DHT22;54079;44.540;18.784;2023-09-19T06:46:31;38.30;59.10
55777;DHT22;54079;44.540;18.784;2023-09-19T06:49:01;39.20;58.80
55777;DHT22;54079;44.540;18.784;2023-09-19T06:51:32;39.40;56.70
55777;DHT22;54079;44.540;18.784;2023-09-19T06:54:01;41.10;55.60
55777;DHT22;54079;44.540;18.784;2023-09-19T06:56:27;42.40;54.90
55777;DHT22;54079;44.540;18.784;2023-09-19T06:58:53;43.00;53.00
55777;DHT22;54079;44.540;18.784;2023-09-19T07:01:19;43.80;52.40
55777;DHT22;54079;44.540;18.784;2023-09-19T07:03:45;45.00;50.80
55777;DHT22;54079;44.540;18.784;2023-09-19T07:06:11;45.90;49.80
55777;DHT22;54079;44.540;18.784;2023-09-19T07:08:37;46.30;48.60
55777;DHT22;54079;44.540;18.784;2023-09-19T07:11:04;46.70;48.20
55777;DHT22;54079;44.540;18.784;2023-09-19T07:13:31;47.20;47.60
55777;DHT22;54079;44.540;18.784;2023-09-19T07:16:01;47.10;47.50
55777;DHT22;54079;44.540;18.784;2023-09-19T07:18:27;45.90;47.60
55777;DHT22;54079;44.540;18.784;2023-09-19T07:20:57;44.90;48.50
55777;DHT22;54079;44.540;18.784;2023-09-19T07:23:30;45.20;47.50
55777;DHT22;54079;44.540;18.784;2023-09-19T07:26:01;45.10;47.80
55777;DHT22;54079;44.540;18.784;2023-09-19T07:28:31;45.30;48.10
55777;DHT22;54079;44.540;18.784;2023-09-19T07:30:56;45.70;47.80
55777;DHT22;54079;44.540;18.784;2023-09-19T07:33:23;45.30;48.40
55777;DHT22;54079;44.540;18.784;2023-09-19T07:35:52;45.60;45.90
55777;DHT22;54079;44.540;18.784;2023-09-19T07:38:18;45.50;47.00
55777;DHT22;54079;44.540;18.784;2023-09-19T07:40:44;46.40;46.10
55777;DHT22;54079;44.540;18.784;2023-09-19T07:43:10;46.90;46.00
55777;DHT22;54079;44.540;18.784;2023-09-19T07:45:36;47.90;45.20
55777;DHT22;54079;44.540;18.784;2023-09-19T07:48:02;48.70;44.80
55777;DHT22;54079;44.540;18.784;2023-09-19T07:50:29;48.90;44.40
55777;DHT22;54079;44.540;18.784;2023-09-19T07:52:55;48.60;44.30
55777;DHT22;54079;44.540;18.784;2023-09-19T07:55:22;49.20;44.30
55777;DHT22;54079;44.540;18.784;2023-09-19T07:57:54;50.10;43.30
55777;DHT22;54079;44.540;18.784;2023-09-19T08:00:20;50.70;42.00
55777;DHT22;54079;44.540;18.784;2023-09-19T08:02:46;50.90;41.70
55777;DHT22;54079;44.540;18.784;2023-09-19T08:05:13;50.30;42.20
55777;DHT22;54079;44.540;18.784;2023-09-19T08:07:44;48.50;42.10
55777;DHT22;54079;44.540;18.784;2023-09-19T08:10:11;48.60;41.90
55777;DHT22;54079;44.540;18.784;2023-09-19T08:12:42;48.90;42.10
55777;DHT22;54079;44.540;18.784;2023-09-19T08:15:19;48.00;41.50
55777;DHT22;54079;44.540;18.784;2023-09-19T08:17:46;47.80;41.50
55777;DHT22;54079;44.540;18.784;2023-09-19T08:20:13;47.90;41.60
55777;DHT22;54079;44.540;18.784;2023-09-19T08:25:18;49.00;40.70
55777;DHT22;54079;44.540;18.784;2023-09-19T08:27:45;48.90;39.80
55777;DHT22;54079;44.540;18.784;2023-09-19T08:30:14;50.50;40.70
55777;DHT22;54079;44.540;18.784;2023-09-19T08:32:41;51.90;40.30
55777;DHT22;54079;44.540;18.784;2023-09-19T08:35:09;52.70;39.20
55777;DHT22;54079;44.540;18.784;2023-09-19T08:37:35;52.80;38.60
55777;DHT22;54079;44.540;18.784;2023-09-19T08:40:01;53.00;38.90
55777;DHT22;54079;44.540;18.784;2023-09-19T08:42:27;52.80;38.60
55777;DHT22;54079;44.540;18.784;2023-09-19T08:44:55;53.60;38.30
55777;DHT22;54079;44.540;18.784;2023-09-19T08:47:34;53.20;38.00
55777;DHT22;54079;44.540;18.784;2023-09-19T08:50:07;52.50;38.10
55777;DHT22;54079;44.540;18.784;2023-09-19T08:52:43;52.40;37.90
55777;DHT22;54079;44.540;18.784;2023-09-19T08:55:13;51.20;37.90
55777;DHT22;54079;44.540;18.784;2023-09-19T08:57:46;50.60;38.00
55777;DHT22;54079;44.540;18.784;2023-09-19T09:00:15;51.10;38.10
55777;DHT22;54079;44.540;18.784;2023-09-19T09:02:44;50.70;37.90
55777;DHT22;54079;44.540;18.784;2023-09-19T09:05:11;51.40;37.80
55777;DHT22;54079;44.540;18.784;2023-09-19T09:07:37;50.70;37.90
55777;DHT22;54079;44.540;18.784;2023-09-19T09:10:04;50.80;37.80
55777;DHT22;54079;44.540;18.784;2023-09-19T09:12:31;51.20;37.70
55777;DHT22;54079;44.540;18.784;2023-09-19T09:14:57;51.40;38.00
55777;DHT22;54079;44.540;18.784;2023-09-19T09:17:26;50.40;38.60
55777;DHT22;54079;44.540;18.784;2023-09-19T09:19:53;48.00;39.60
55777;DHT22;54079;44.540;18.784;2023-09-19T09:22:20;44.90;40.00
55777;DHT22;54079;44.540;18.784;2023-09-19T09:24:58;43.80;41.30
55777;DHT22;54079;44.540;18.784;2023-09-19T09:27:26;42.00;42.00
55777;DHT22;54079;44.540;18.784;2023-09-19T09:29:53;41.30;42.30
55777;DHT22;54079;44.540;18.784;2023-09-19T09:32:24;40.30;43.00
55777;DHT22;54079;44.540;18.784;2023-09-19T09:34:56;39.40;43.60
55777;DHT22;54079;44.540;18.784;2023-09-19T09:37:23;39.00;43.90
55777;DHT22;54079;44.540;18.784;2023-09-19T09:40:01;38.30;44.00
55777;DHT22;54079;44.540;18.784;2023-09-19T09:42:42;37.70;44.80
55777;DHT22;54079;44.540;18.784;2023-09-19T09:45:17;36.80;45.50
55777;DHT22;54079;44.540;18.784;2023-09-19T09:47:47;36.70;45.40
55777;DHT22;54079;44.540;18.784;2023-09-19T09:50:26;36.50;45.50
55777;DHT22;54079;44.540;18.784;2023-09-19T09:52:59;36.10;46.20
55777;DHT22;54079;44.540;18.784;2023-09-19T09:56:00;36.30;46.60
55777;DHT22;54079;44.540;18.784;2023-09-19T09:58:27;36.70;46.40
55777;DHT22;54079;44.540;18.784;2023-09-19T10:01:04;36.80;46.50
55777;DHT22;54079;44.540;18.784;2023-09-19T10:03:41;36.50;46.50
55777;DHT22;54079;44.540;18.784;2023-09-19T10:06:14;36.40;47.00
55777;DHT22;54079;44.540;18.784;2023-09-19T10:09:02;36.50;47.20
55777;DHT22;54079;44.540;18.784;2023-09-19T10:11:32;36.20;47.60
55777;DHT22;54079;44.540;18.784;2023-09-19T10:14:03;36.30;47.00
55777;DHT22;54079;44.540;18.784;2023-09-19T10:16:32;36.40;46.80
55777;DHT22;54079;44.540;18.784;2023-09-19T10:19:02;36.30;47.10
55777;DHT22;54079;44.540;18.784;2023-09-19T10:21:33;36.10;47.40
55777;DHT22;54079;44.540;18.784;2023-09-19T10:24:03;36.10;47.30
55777;DHT22;54079;44.540;18.784;2023-09-19T10:26:35;36.30;47.60
55777;DHT22;54079;44.540;18.784;2023-09-19T10:29:01;36.40;47.20
55777;DHT22;54079;44.540;18.784;2023-09-19T10:31:33;36.10;46.40
55777;DHT22;54079;44.540;18.784;2023-09-19T10:34:03;36.00;47.20
55777;DHT22;54079;44.540;18.784;2023-09-19T10:36:33;36.20;46.30
55777;DHT22;54079;44.540;18.784;2023-09-19T10:39:02;35.20;47.30
55777;DHT22;54079;44.540;18.784;2023-09-19T10:41:34;35.10;47.90
55777;DHT22;54079;44.540;18.784;2023-09-19T10:44:04;34.30;48.10
55777;DHT22;54079;44.540;18.784;2023-09-19T10:46:35;33.90;48.70
55777;DHT22;54079;44.540;18.784;2023-09-19T10:49:04;33.90;49.60
55777;DHT22;54079;44.540;18.784;2023-09-19T10:51:33;34.20;49.40
55777;DHT22;54079;44.540;18.784;2023-09-19T10:54:12;34.40;48.30
55777;DHT22;54079;44.540;18.784;2023-09-19T10:56:46;35.10;47.80
55777;DHT22;54079;44.540;18.784;2023-09-19T10:59:21;35.30;47.00
55777;DHT22;54079;44.540;18.784;2023-09-19T11:01:49;35.20;47.40
55777;DHT22;54079;44.540;18.784;2023-09-19T11:07:02;35.20;47.30
55777;DHT22;54079;44.540;18.784;2023-09-19T11:09:49;34.80;47.80
55777;DHT22;54079;44.540;18.784;2023-09-19T11:14:58;33.70;48.60
55777;DHT22;54079;44.540;18.784;2023-09-19T11:17:42;32.40;52.50
55777;DHT22;54079;44.540;18.784;2023-09-19T11:30:45;30.10;60.30
55777;DHT22;54079;44.540;18.784;2023-09-19T11:33:27;29.70;61.20
55777;DHT22;54079;44.540;18.784;2023-09-19T11:36:02;29.10;63.80
55777;DHT22;54079;44.540;18.784;2023-09-19T11:43:54;28.50;65.50
55777;DHT22;54079;44.540;18.784;2023-09-19T12:05:54;26.90;70.20
55777;DHT22;54079;44.540;18.784;2023-09-19T12:08:20;27.00;71.80
55777;DHT22;54079;44.540;18.784;2023-09-19T12:10:51;26.50;73.80
55777;DHT22;54079;44.540;18.784;2023-09-19T12:13:20;26.00;76.20
55777;DHT22;54079;44.540;18.784;2023-09-19T12:15:46;25.80;77.90
55777;DHT22;54079;44.540;18.784;2023-09-19T12:18:30;25.70;79.80
55777;DHT22;54079;44.540;18.784;2023-09-19T12:20:56;25.60;81.60
55777;DHT22;54079;44.540;18.784;2023-09-19T12:23:24;25.60;81.70
55777;DHT22;54079;44.540;18.784;2023-09-19T12:25:52;26.00;81.60
55777;DHT22;54079;44.540;18.784;2023-09-19T12:28:20;26.00;81.10
55777;DHT22;54079;44.540;18.784;2023-09-19T12:30:50;26.00;80.90
55777;DHT22;54079;44.540;18.784;2023-09-19T12:33:19;25.80;81.10
55777;DHT22;54079;44.540;18.784;2023-09-19T12:35:51;25.50;82.90
55777;DHT22;54079;44.540;18.784;2023-09-19T12:38:27;25.60;83.30
55777;DHT22;54079;44.540;18.784;2023-09-19T12:41:01;25.20;82.80
55777;DHT22;54079;44.540;18.784;2023-09-19T12:43:32;25.20;84.60
55777;DHT22;54079;44.540;18.784;2023-09-19T12:46:02;25.10;84.20
55777;DHT22;54079;44.540;18.784;2023-09-19T12:48:30;25.40;83.30
55777;DHT22;54079;44.540;18.784;2023-09-19T12:51:08;25.30;83.40
55777;DHT22;54079;44.540;18.784;2023-09-19T12:56:12;25.20;83.90
55777;DHT22;54079;44.540;18.784;2023-09-19T13:01:20;25.30;82.40
55777;DHT22;54079;44.540;18.784;2023-09-19T13:03:46;25.30;82.60
55777;DHT22;54079;44.540;18.784;2023-09-19T13:06:37;25.40;80.50
55777;DHT22;54079;44.540;18.784;2023-09-19T13:09:09;25.50;82.10
55777;DHT22;54079;44.540;18.784;2023-09-19T13:11:37;25.50;82.60
55777;DHT22;54079;44.540;18.784;2023-09-19T13:14:18;25.70;81.60
55777;DHT22;54079;44.540;18.784;2023-09-19T13:17:07;25.80;82.10
55777;DHT22;54079;44.540;18.784;2023-09-19T13:19:46;25.70;82.30
55777;DHT22;54079;44.540;18.784;2023-09-19T13:22:43;25.80;81.60
55777;DHT22;54079;44.540;18.784;2023-09-19T13:25:21;26.00;80.50
55777;DHT22;54079;44.540;18.784;2023-09-19T13:27:52;26.20;79.50
55777;DHT22;54079;44.540;18.784;2023-09-19T13:30:20;26.60;79.40
55777;DHT22;54079;44.540;18.784;2023-09-19T13:32:47;27.30;77.50
55777;DHT22;54079;44.540;18.784;2023-09-19T13:35:14;27.50;76.70
55777;DHT22;54079;44.540;18.784;2023-09-19T13:37:41;27.90;75.40
55777;DHT22;54079;44.540;18.784;2023-09-19T13:40:12;28.40;74.90
55777;DHT22;54079;44.540;18.784;2023-09-19T13:42:39;28.50;73.90
55777;DHT22;54079;44.540;18.784;2023-09-19T13:45:05;28.20;73.40
55777;DHT22;54079;44.540;18.784;2023-09-19T13:47:32;28.10;73.40
55777;DHT22;54079;44.540;18.784;2023-09-19T13:49:59;28.00;73.00
55777;DHT22;54079;44.540;18.784;2023-09-19T13:52:26;27.80;73.20
55777;DHT22;54079;44.540;18.784;2023-09-19T13:54:55;27.70;73.40
55777;DHT22;54079;44.540;18.784;2023-09-19T13:57:24;27.60;73.90
55777;DHT22;54079;44.540;18.784;2023-09-19T13:59:54;27.80;73.50
55777;DHT22;54079;44.540;18.784;2023-09-19T14:02:23;27.70;72.90
55777;DHT22;54079;44.540;18.784;2023-09-19T14:04:51;27.50;73.30
55777;DHT22;54079;44.540;18.784;2023-09-19T14:07:17;27.60;73.80
55777;DHT22;54079;44.540;18.784;2023-09-19T14:09:44;27.60;73.80
55777;DHT22;54079;44.540;18.784;2023-09-19T14:12:11;27.40;74.70
55777;DHT22;54079;44.540;18.784;2023-09-19T14:14:37;27.70;74.80
55777;DHT22;54079;44.540;18.784;2023-09-19T14:17:04;27.50;73.90
55777;DHT22;54079;44.540;18.784;2023-09-19T14:19:30;26.80;75.70
55777;DHT22;54079;44.540;18.784;2023-09-19T14:21:56;26.70;77.00
55777;DHT22;54079;44.540;18.784;2023-09-19T14:24:22;26.80;76.00
55777;DHT22;54079;44.540;18.784;2023-09-19T14:26:49;26.90;76.40
55777;DHT22;54079;44.540;18.784;2023-09-19T14:29:15;26.60;76.20
55777;DHT22;54079;44.540;18.784;2023-09-19T14:31:42;26.70;76.30
55777;DHT22;54079;44.540;18.784;2023-09-19T14:34:08;27.00;75.90
55777;DHT22;54079;44.540;18.784;2023-09-19T14:36:35;27.30;74.20
55777;DHT22;54079;44.540;18.784;2023-09-19T14:39:02;27.20;74.40
55777;DHT22;54079;44.540;18.784;2023-09-19T14:41:28;27.10;75.00
55777;DHT22;54079;44.540;18.784;2023-09-19T14:43:56;26.70;75.60
55777;DHT22;54079;44.540;18.784;2023-09-19T14:46:23;26.70;76.40
55777;DHT22;54079;44.540;18.784;2023-09-19T14:48:51;27.10;76.20
55777;DHT22;54079;44.540;18.784;2023-09-19T14:51:18;27.30;75.10
55777;DHT22;54079;44.540;18.784;2023-09-19T14:53:45;27.20;74.70
55777;DHT22;54079;44.540;18.784;2023-09-19T14:56:12;27.20;76.00
55777;DHT22;54079;44.540;18.784;2023-09-19T14:58:41;27.20;77.10
55777;DHT22;54079;44.540;18.784;2023-09-19T15:01:09;27.20;76.80
55777;DHT22;54079;44.540;18.784;2023-09-19T15:03:39;27.20;76.90
55777;DHT22;54079;44.540;18.784;2023-09-19T15:06:11;27.20;76.30
55777;DHT22;54079;44.540;18.784;2023-09-19T15:08:40;27.00;76.50
55777;DHT22;54079;44.540;18.784;2023-09-19T15:11:11;26.90;74.60
55777;DHT22;54079;44.540;18.784;2023-09-19T15:13:39;26.70;74.60
55777;DHT22;54079;44.540;18.784;2023-09-19T15:16:09;26.60;75.70
55777;DHT22;54079;44.540;18.784;2023-09-19T15:18:42;26.30;75.80
55777;DHT22;54079;44.540;18.784;2023-09-19T15:21:10;26.30;76.60
55777;DHT22;54079;44.540;18.784;2023-09-19T15:23:37;26.20;76.40
55777;DHT22;54079;44.540;18.784;2023-09-19T15:26:04;26.20;76.60
55777;DHT22;54079;44.540;18.784;2023-09-19T15:28:31;26.10;75.40
55777;DHT22;54079;44.540;18.784;2023-09-19T15:31:03;26.30;75.80
55777;DHT22;54079;44.540;18.784;2023-09-19T15:33:32;26.20;75.70
55777;DHT22;54079;44.540;18.784;2023-09-19T15:36:02;26.30;75.10
55777;DHT22;54079;44.540;18.784;2023-09-19T15:38:29;26.30;74.50
55777;DHT22;54079;44.540;18.784;2023-09-19T15:40:58;26.30;74.00
55777;DHT22;54079;44.540;18.784;2023-09-19T15:43:24;26.30;73.70
55777;DHT22;54079;44.540;18.784;2023-09-19T15:45:50;26.40;73.50
55777;DHT22;54079;44.540;18.784;2023-09-19T15:48:16;26.40;74.10
55777;DHT22;54079;44.540;18.784;2023-09-19T15:50:42;26.50;73.50
55777;DHT22;54079;44.540;18.784;2023-09-19T15:53:10;26.50;73.80
55777;DHT22;54079;44.540;18.784;2023-09-19T15:55:41;26.30;73.50
55777;DHT22;54079;44.540;18.784;2023-09-19T15:58:07;26.30;74.10
55777;DHT22;54079;44.540;18.784;2023-09-19T16:00:33;26.40;73.60
55777;DHT22;54079;44.540;18.784;2023-09-19T16:03:03;26.50;73.00
55777;DHT22;54079;44.540;18.784;2023-09-19T16:05:35;26.40;72.80
55777;DHT22;54079;44.540;18.784;2023-09-19T16:08:06;26.40;72.90
55777;DHT22;54079;44.540;18.784;2023-09-19T16:10:36;26.40;73.50
55777;DHT22;54079;44.540;18.784;2023-09-19T16:13:04;26.50;72.80
55777;DHT22;54079;44.540;18.784;2023-09-19T16:15:32;26.40;72.90
55777;DHT22;54079;44.540;18.784;2023-09-19T16:17:58;26.30;73.60
55777;DHT22;54079;44.540;18.784;2023-09-19T16:20:26;26.00;72.40
55777;DHT22;54079;44.540;18.784;2023-09-19T16:22:53;26.00;72.80
55777;DHT22;54079;44.540;18.784;2023-09-19T16:25:22;25.90;73.30